Terminal Aerodrome Forecast
Issued by NWS

Home | Current Version | Previous Version | Text Only | Print | Product List | Glossary On
Versions: 1 2 3 4 5 6 7 8 9 10 11 12 13 14 15 16 17 18 19 20 21
000
FTUS43 KDLH 151116 AAB
TAFHYR
TAF AMD
KHYR 151116Z 1511/1606 35008KT P6SM -RA OVC010
     FM151300 35007KT P6SM VCSH SCT010 OVC020
     FM151600 33007KT P6SM SCT030
     FM152000 28009KT P6SM SCT080
     FM160100 00000KT P6SM BKN110=

USA.gov is the U.S. government's official web portal to all federal, state and local government web resources and services.